createdAt,value
2022-08-25T00:01:02.903Z,12.95
2022-08-25T00:03:04.996Z,13.25
2022-08-25T00:05:08.176Z,15.45
2022-08-25T00:07:12.758Z,11.98
2022-08-25T00:09:24.109Z,7.75
2022-08-25T00:11:29.018Z,14.43
2022-08-25T00:13:31.381Z,14.38
2022-08-25T00:15:35.983Z,10.02
2022-08-25T00:17:38.065Z,10.57
2022-08-25T00:19:40.021Z,12.45
2022-08-25T00:21:43.755Z,10.73
2022-08-25T00:23:46.816Z,11.73
2022-08-25T00:25:49.267Z,12.55
2022-08-25T00:27:51.807Z,12.52
2022-08-25T00:29:55.684Z,10.95
2022-08-25T00:31:58.232Z,9.35
2022-08-25T00:34:01.521Z,9.52
2022-08-25T00:36:05.229Z,10.60
2022-08-25T00:38:10.272Z,10.13
2022-08-25T00:40:18.618Z,11.70
2022-08-25T00:42:21.239Z,10.63
2022-08-25T00:44:26.655Z,10.93
2022-08-25T00:46:38.289Z,11.88
2022-08-25T00:48:43.805Z,9.95
2022-08-25T00:50:45.697Z,7.75
2022-08-25T00:52:52.655Z,11.35
2022-08-25T00:55:29.662Z,12.25
2022-08-25T00:57:36.540Z,13.95
2022-08-25T00:59:39.231Z,10.55
2022-08-25T01:01:43.415Z,15.18
2022-08-25T01:03:45.490Z,9.25
2022-08-25T01:05:48.823Z,9.75
2022-08-25T01:07:52.722Z,14.25
2022-08-25T01:10:01.366Z,17.45
2022-08-25T01:12:03.677Z,11.32
2022-08-25T01:14:08.663Z,14.80
2022-08-25T01:16:11.693Z,9.23
2022-08-25T01:18:16.032Z,11.10
2022-08-25T01:20:20.276Z,10.68
2022-08-25T01:22:22.379Z,12.75
2022-08-25T01:24:45.307Z,17.05
2022-08-25T01:26:47.243Z,11.45
2022-08-25T01:29:10.451Z,16.63
2022-08-25T01:31:23.537Z,15.95
2022-08-25T01:33:28.356Z,12.80
2022-08-25T01:35:31.354Z,14.27
2022-08-25T01:37:35.749Z,11.57
2022-08-25T01:39:37.680Z,17.63
2022-08-25T01:41:59.900Z,13.20
2022-08-25T01:44:06.089Z,11.60
2022-08-25T01:46:33.160Z,11.68
2022-08-25T01:48:37.112Z,8.20
2022-08-25T01:50:41.933Z,13.43
2022-08-25T01:53:09.274Z,16.48
2022-08-25T01:55:11.309Z,14.88
2022-08-25T01:57:15.420Z,22.00
2022-08-25T01:59:24.317Z,16.88
2022-08-25T02:01:28.044Z,20.30
2022-08-25T02:03:30.218Z,19.15
2022-08-25T02:05:35.453Z,14.45
2022-08-25T02:07:38.417Z,14.95
2022-08-25T02:09:44.448Z,11.40
2022-08-25T02:11:47.256Z,16.60
2022-08-25T02:13:49.279Z,15.40
2022-08-25T02:15:54.567Z,17.80
2022-08-25T02:17:57.437Z,14.75
2022-08-25T02:19:59.702Z,21.08
2022-08-25T02:22:02.403Z,12.52
2022-08-25T02:24:06.643Z,13.73
2022-08-25T02:26:10.054Z,17.10
2022-08-25T02:28:12.115Z,18.98
2022-08-25T02:30:15.627Z,17.27
2022-08-25T02:32:17.513Z,20.17
2022-08-25T02:34:19.558Z,20.98
2022-08-25T02:36:24.556Z,14.40
2022-08-25T02:38:34.065Z,21.48
2022-08-25T02:40:38.224Z,19.23
2022-08-25T02:42:42.677Z,16.05
2022-08-25T02:44:44.791Z,17.52
2022-08-25T02:46:48.668Z,16.33
2022-08-25T02:48:53.502Z,20.30
2022-08-25T02:50:55.684Z,17.75
2022-08-25T02:52:57.646Z,18.02
2022-08-25T02:54:59.585Z,17.67
2022-08-25T02:57:01.660Z,19.67
2022-08-25T02:59:04.321Z,16.95
2022-08-25T03:01:12.091Z,20.65
2022-08-25T03:03:14.542Z,14.13
2022-08-25T03:05:19.820Z,25.77
2022-08-25T03:07:22.256Z,12.88
2022-08-25T03:09:32.202Z,18.88
2022-08-25T03:11:38.524Z,13.23
2022-08-25T03:13:42.495Z,17.55
2022-08-25T03:15:46.421Z,13.45
2022-08-25T03:17:51.846Z,15.85
2022-08-25T03:19:54.849Z,16.48
2022-08-25T03:21:59.723Z,15.88
2022-08-25T03:24:01.865Z,18.38
2022-08-25T03:26:23.174Z,18.73
2022-08-25T03:28:30.095Z,15.35
2022-08-25T03:30:35.058Z,15.55
2022-08-25T03:32:37.610Z,21.67
2022-08-25T03:34:39.699Z,13.27
2022-08-25T03:36:45.207Z,14.25
2022-08-25T03:38:47.141Z,20.20
2022-08-25T03:40:51.774Z,11.10
2022-08-25T03:42:55.654Z,12.68
2022-08-25T03:44:57.575Z,13.05
2022-08-25T03:46:59.515Z,12.93
2022-08-25T03:49:06.975Z,15.60
2022-08-25T03:51:08.959Z,17.15
2022-08-25T03:53:10.920Z,13.48
2022-08-25T03:55:15.118Z,11.80
2022-08-25T03:57:17.258Z,11.60
2022-08-25T03:59:20.166Z,13.63
2022-08-25T04:01:22.631Z,16.30
2022-08-25T04:03:26.919Z,18.15
2022-08-25T04:05:38.764Z,14.05
2022-08-25T04:07:40.852Z,16.45
2022-08-25T04:09:44.920Z,11.68
2022-08-25T04:11:48.963Z,16.85
2022-08-25T04:13:59.315Z,12.85
2022-08-25T04:16:01.275Z,12.93
2022-08-25T04:18:04.499Z,15.95
2022-08-25T04:20:09.609Z,16.42
2022-08-25T04:22:11.659Z,14.18
2022-08-25T04:24:16.421Z,14.57
2022-08-25T04:26:43.367Z,15.45
2022-08-25T04:28:47.235Z,17.25
2022-08-25T04:30:52.032Z,17.95
2022-08-25T04:32:54.197Z,20.52
2022-08-25T04:34:57.166Z,18.95
2022-08-25T04:37:01.884Z,18.10
2022-08-25T04:39:04.065Z,20.90
2022-08-25T04:41:10.958Z,24.38
2022-08-25T04:43:15.629Z,13.50
2022-08-25T04:45:17.676Z,23.90
2022-08-25T04:47:23.914Z,19.35
2022-08-25T04:49:27.186Z,23.08
2022-08-25T04:51:41.226Z,25.55
2022-08-25T04:53:43.850Z,26.10
2022-08-25T04:55:48.395Z,26.13
2022-08-25T04:57:51.309Z,23.17
2022-08-25T04:59:58.295Z,20.00
2022-08-25T05:02:03.453Z,20.83
2022-08-25T05:04:14.473Z,25.60
2022-08-25T05:06:17.725Z,18.25
2022-08-25T05:08:19.675Z,19.10
2022-08-25T05:10:22.828Z,23.67
2022-08-25T05:12:24.926Z,22.85
2022-08-25T05:14:27.920Z,23.30
2022-08-25T05:16:31.822Z,18.38
2022-08-25T05:18:36.105Z,26.63
2022-08-25T05:20:38.475Z,22.65
2022-08-25T05:22:40.470Z,29.85
2022-08-25T05:24:42.446Z,27.58
2022-08-25T05:26:44.594Z,26.52
2022-08-25T05:28:47.459Z,22.05
2022-08-25T05:30:52.185Z,29.10
2022-08-25T05:32:54.468Z,25.45
2022-08-25T05:34:56.610Z,28.80
2022-08-25T05:37:00.365Z,27.40
2022-08-25T05:39:02.366Z,25.73
2022-08-25T05:41:06.865Z,28.95
2022-08-25T05:43:08.956Z,27.08
2022-08-25T05:45:16.710Z,30.65
2022-08-25T05:47:23.931Z,28.67
2022-08-25T05:49:25.864Z,30.52
2022-08-25T05:51:29.177Z,28.88
2022-08-25T05:53:35.522Z,33.80
2022-08-25T05:55:38.396Z,26.42
2022-08-25T05:57:41.441Z,31.00
2022-08-25T05:59:43.538Z,27.00
2022-08-25T06:02:03.982Z,30.42
2022-08-25T06:04:06.729Z,25.75
2022-08-25T06:06:16.280Z,30.65
2022-08-25T06:08:18.203Z,36.25
2022-08-25T06:10:29.461Z,42.88
2022-08-25T06:12:36.252Z,37.53
2022-08-25T06:14:38.343Z,35.20
2022-08-25T06:16:41.252Z,30.08
2022-08-25T06:18:44.205Z,37.50
2022-08-25T06:20:46.110Z,33.95
2022-08-25T06:22:55.501Z,33.97
2022-08-25T06:25:05.875Z,28.55
2022-08-25T06:27:07.905Z,30.90
2022-08-25T06:29:10.906Z,34.78
2022-08-25T06:31:12.987Z,33.08
2022-08-25T06:33:16.270Z,25.50
2022-08-25T06:35:20.434Z,29.90
2022-08-25T06:37:25.143Z,34.63
2022-08-25T06:39:27.589Z,36.75
2022-08-25T06:41:37.100Z,37.33
2022-08-25T06:43:45.055Z,32.35
2022-08-25T06:45:51.346Z,37.60
2022-08-25T06:47:54.865Z,34.78
2022-08-25T06:49:56.921Z,30.45
2022-08-25T06:51:59.101Z,29.98
2022-08-25T06:54:01.025Z,31.20
2022-08-25T06:56:06.635Z,36.85
2022-08-25T06:58:14.000Z,38.05
2022-08-25T07:00:17.794Z,31.33
2022-08-25T07:02:23.899Z,25.40
2022-08-25T07:04:27.090Z,27.35
2022-08-25T07:06:33.059Z,29.58
2022-08-25T07:08:36.182Z,29.73
2022-08-25T07:10:39.339Z,27.20
2022-08-25T07:12:41.617Z,23.13
2022-08-25T07:14:58.155Z,26.73
2022-08-25T07:17:10.598Z,27.23
2022-08-25T07:19:21.047Z,29.73
2022-08-25T07:21:25.346Z,20.63
2022-08-25T07:23:30.817Z,33.83
2022-08-25T07:25:35.810Z,30.40
2022-08-25T07:27:41.264Z,29.33
2022-08-25T07:29:44.770Z,39.67
2022-08-25T07:31:47.347Z,25.40
2022-08-25T07:34:10.073Z,24.02
2022-08-25T07:36:20.827Z,31.60
2022-08-25T07:38:25.697Z,31.85
2022-08-25T07:40:32.062Z,34.15
2022-08-25T07:42:36.198Z,31.83
2022-08-25T07:44:40.261Z,34.55
2022-08-25T07:46:45.633Z,33.95
2022-08-25T07:48:53.334Z,24.67
2022-08-25T07:50:56.565Z,26.17
2022-08-25T07:52:59.597Z,35.10
2022-08-25T07:55:02.442Z,33.65
2022-08-25T07:57:06.193Z,27.20
2022-08-25T07:59:13.964Z,28.13
2022-08-25T08:01:25.846Z,24.75
2022-08-25T08:03:45.177Z,27.25
2022-08-25T08:05:52.476Z,27.17
2022-08-25T08:07:55.396Z,30.73
2022-08-25T08:10:25.710Z,30.85
2022-08-25T08:12:20.260Z,26.92
2022-08-25T08:14:25.471Z,28.52
2022-08-25T08:16:29.983Z,24.17
2022-08-25T08:18:43.547Z,32.75
2022-08-25T08:20:48.588Z,24.95
2022-08-25T08:22:50.738Z,39.08
2022-08-25T08:24:54.450Z,30.77
2022-08-25T08:26:59.388Z,43.35
2022-08-25T08:29:02.007Z,35.25
2022-08-25T08:31:04.866Z,28.35
2022-08-25T08:33:11.185Z,31.77
2022-08-25T08:35:15.557Z,27.83
2022-08-25T08:37:17.545Z,25.70
2022-08-25T08:39:19.637Z,32.53
2022-08-25T08:42:10.864Z,31.42
2022-08-25T08:44:35.417Z,31.20
2022-08-25T08:47:17.425Z,28.00
2022-08-25T08:49:38.071Z,38.15
2022-08-25T08:51:56.571Z,27.55
2022-08-25T08:54:15.611Z,34.28
2022-08-25T08:56:30.743Z,33.63
2022-08-25T08:58:40.234Z,25.10
2022-08-25T09:00:52.148Z,25.20
2022-08-25T09:03:06.209Z,32.95
2022-08-25T09:05:17.061Z,26.83
2022-08-25T09:07:28.262Z,42.92
2022-08-25T09:11:52.253Z,35.42
2022-08-25T09:14:04.387Z,33.15
2022-08-25T09:16:36.184Z,33.88
2022-08-25T09:18:41.070Z,22.85
2022-08-25T09:21:17.769Z,27.80
2022-08-25T09:23:41.799Z,29.30
2022-08-25T09:25:54.097Z,28.55
2022-08-25T09:28:05.343Z,27.77
2022-08-25T09:30:11.486Z,30.20
2022-08-25T09:32:15.193Z,31.45
2022-08-25T09:34:32.133Z,32.10
2022-08-25T09:36:37.401Z,27.98
2022-08-25T09:38:40.467Z,31.63
2022-08-25T09:40:54.571Z,29.27
2022-08-25T09:43:00.483Z,35.35
2022-08-25T09:45:05.218Z,23.77
2022-08-25T09:47:22.372Z,40.92
2022-08-25T09:49:41.413Z,34.58
2022-08-25T09:51:44.485Z,28.33
2022-08-25T09:53:52.618Z,28.60
2022-08-25T09:56:04.699Z,27.75
2022-08-25T09:58:22.252Z,28.55
2022-08-25T10:00:26.567Z,27.10
2022-08-25T10:02:36.466Z,42.20
2022-08-25T10:04:41.656Z,24.38
2022-08-25T10:06:47.601Z,27.88
2022-08-25T10:08:49.578Z,31.10
2022-08-25T10:10:57.865Z,36.97
2022-08-25T10:13:03.663Z,38.50
2022-08-25T10:15:29.466Z,28.02
2022-08-25T10:17:33.760Z,27.30
2022-08-25T10:19:35.731Z,33.33
2022-08-25T10:21:42.094Z,35.63
2022-08-25T10:23:56.090Z,35.28
2022-08-25T10:26:04.565Z,25.08
2022-08-25T10:28:27.966Z,32.92
2022-08-25T10:31:09.653Z,27.30
2022-08-25T10:33:36.454Z,32.75
2022-08-25T10:35:59.090Z,24.60
2022-08-25T10:38:09.595Z,26.15
2022-08-25T10:40:23.691Z,27.55
2022-08-25T10:42:39.486Z,26.08
2022-08-25T10:45:19.512Z,27.75
2022-08-25T10:47:50.616Z,24.85
2022-08-25T10:50:02.721Z,29.55
2022-08-25T10:52:12.843Z,27.13
2022-08-25T10:54:28.221Z,27.08
2022-08-25T10:56:37.025Z,22.35
2022-08-25T10:59:00.107Z,30.63
2022-08-25T11:01:28.898Z,16.45
2022-08-25T11:06:04.772Z,22.65
2022-08-25T11:08:34.147Z,11.57
2022-08-25T11:10:53.308Z,20.77
2022-08-25T11:13:04.431Z,13.63
2022-08-25T11:15:18.207Z,17.23
2022-08-25T11:17:27.660Z,10.10
2022-08-25T11:19:38.146Z,9.75
2022-08-25T11:21:45.012Z,10.17
2022-08-25T11:23:53.812Z,15.20
2022-08-25T11:26:11.359Z,12.88
2022-08-25T11:28:22.273Z,10.63
2022-08-25T11:30:26.014Z,8.02
2022-08-25T11:32:33.506Z,18.92
2022-08-25T11:34:43.027Z,21.95
2022-08-25T11:37:00.075Z,20.42
2022-08-25T11:39:14.279Z,13.02
2022-08-25T11:41:36.149Z,12.27
2022-08-25T11:44:02.631Z,9.32
2022-08-25T11:46:19.732Z,11.07
2022-08-25T11:48:40.310Z,14.07
2022-08-25T11:50:59.894Z,16.53
2022-08-25T11:53:28.895Z,14.27
2022-08-25T11:55:39.044Z,14.95
2022-08-25T11:57:44.967Z,8.10
2022-08-25T11:59:49.920Z,10.80
2022-08-25T12:01:57.556Z,11.18
2022-08-25T12:04:31.904Z,10.00
2022-08-25T12:06:36.950Z,9.50
2022-08-25T12:09:00.057Z,11.23
2022-08-25T12:11:11.246Z,14.20
2022-08-25T12:13:33.797Z,8.75
2022-08-25T12:15:44.507Z,14.07
2022-08-25T12:18:10.388Z,8.90
2022-08-25T12:20:13.298Z,17.65
2022-08-25T12:22:16.032Z,12.18
2022-08-25T12:24:48.115Z,12.75
2022-08-25T12:27:06.761Z,11.02
2022-08-25T12:29:30.826Z,11.93
2022-08-25T12:31:51.248Z,11.55
2022-08-25T12:34:19.648Z,9.45
2022-08-25T12:36:34.694Z,9.57
2022-08-25T12:38:51.938Z,9.18
2022-08-25T12:41:22.297Z,8.00
2022-08-25T12:43:37.869Z,8.88
2022-08-25T12:45:46.577Z,8.20
2022-08-25T12:47:50.198Z,12.80
2022-08-25T12:49:52.429Z,17.90
2022-08-25T12:52:00.869Z,6.80
2022-08-25T12:54:25.826Z,10.27
2022-08-25T12:56:39.139Z,8.77
2022-08-25T12:59:03.661Z,9.57
2022-08-25T13:01:35.235Z,6.65
2022-08-25T13:04:09.396Z,11.82
2022-08-25T13:06:32.085Z,11.57
2022-08-25T13:09:28.780Z,8.43
2022-08-25T13:11:43.401Z,8.43
2022-08-25T13:14:29.055Z,9.35
2022-08-25T13:16:33.730Z,7.53
2022-08-25T13:18:39.800Z,20.58
2022-08-25T13:20:43.998Z,6.57
2022-08-25T13:22:56.676Z,5.05
2022-08-25T13:25:00.753Z,8.20
2022-08-25T13:27:06.251Z,6.18
2022-08-25T13:29:09.287Z,7.80
2022-08-25T13:31:22.419Z,10.98
2022-08-25T13:33:25.280Z,12.82
2022-08-25T13:35:30.968Z,7.47
2022-08-25T13:37:35.564Z,8.20
2022-08-25T13:39:55.261Z,12.52
2022-08-25T13:41:58.533Z,8.52
2022-08-25T13:44:06.305Z,8.68
2022-08-25T13:46:19.603Z,11.70
2022-08-25T13:48:40.183Z,11.15
2022-08-25T13:50:52.911Z,15.45
2022-08-25T13:52:58.494Z,11.18
2022-08-25T13:55:08.307Z,10.63
2022-08-25T13:57:24.972Z,8.27
2022-08-25T13:59:35.442Z,14.07
2022-08-25T14:01:51.130Z,7.75
2022-08-25T14:03:56.757Z,11.35
2022-08-25T14:06:15.571Z,7.40
2022-08-25T14:08:33.627Z,15.55
2022-08-25T14:10:40.275Z,14.95
2022-08-25T14:12:46.521Z,7.10
2022-08-25T14:14:59.219Z,7.78
2022-08-25T14:17:28.752Z,12.25
2022-08-25T14:19:35.664Z,9.55
2022-08-25T14:21:40.816Z,4.93
2022-08-25T14:23:44.155Z,7.07
2022-08-25T14:25:47.427Z,10.88
2022-08-25T14:28:09.113Z,6.95
2022-08-25T14:30:13.444Z,5.10
2022-08-25T14:32:17.170Z,16.58
2022-08-25T14:34:23.994Z,9.35
2022-08-25T14:36:29.972Z,9.35
2022-08-25T14:38:34.172Z,10.63
2022-08-25T14:40:36.293Z,9.15
2022-08-25T14:42:46.446Z,9.02
2022-08-25T14:44:50.936Z,6.45
2022-08-25T14:46:56.848Z,9.60
2022-08-25T14:49:04.668Z,10.40
2022-08-25T14:51:07.464Z,8.23
2022-08-25T14:53:11.347Z,12.57
2022-08-25T14:55:17.341Z,5.82
2022-08-25T14:57:33.352Z,8.63
2022-08-25T14:59:35.300Z,5.70
2022-08-25T15:01:37.533Z,10.02
2022-08-25T15:03:43.410Z,7.75
2022-08-25T15:05:49.304Z,13.13
2022-08-25T15:08:13.176Z,10.77
2022-08-25T15:10:15.230Z,8.63
2022-08-25T15:12:26.049Z,7.75
2022-08-25T15:14:41.160Z,15.70
2022-08-25T15:16:46.961Z,11.05
2022-08-25T15:18:57.007Z,13.70
2022-08-25T15:20:58.970Z,9.02
2022-08-25T15:23:01.717Z,7.38
2022-08-25T15:25:04.257Z,13.50
2022-08-25T15:27:12.489Z,8.02
2022-08-25T15:29:14.538Z,4.70
2022-08-25T15:31:20.606Z,7.30
2022-08-25T15:33:23.183Z,5.90
2022-08-25T15:35:27.689Z,7.10
2022-08-25T15:37:31.994Z,4.60
2022-08-25T15:39:35.495Z,13.77
2022-08-25T15:41:38.536Z,8.48
2022-08-25T15:43:40.644Z,9.52
2022-08-25T15:45:42.940Z,10.65
2022-08-25T15:47:45.252Z,4.85
2022-08-25T15:49:47.475Z,5.82
2022-08-25T15:51:49.472Z,16.35
2022-08-25T15:53:53.106Z,6.03
2022-08-25T15:56:04.663Z,6.28
2022-08-25T15:58:08.918Z,7.18
2022-08-25T16:00:13.716Z,5.88
2022-08-25T16:02:19.080Z,10.93
2022-08-25T16:04:26.797Z,7.10
2022-08-25T16:06:28.688Z,6.88
2022-08-25T16:08:30.868Z,6.30
2022-08-25T16:10:39.428Z,16.90
2022-08-25T16:12:42.703Z,7.97
2022-08-25T16:14:46.137Z,7.47
2022-08-25T16:16:49.117Z,13.32
2022-08-25T16:18:51.527Z,10.50
2022-08-25T16:20:55.761Z,7.03
2022-08-25T16:23:00.831Z,9.93
2022-08-25T16:25:03.500Z,6.85
2022-08-25T16:27:11.069Z,6.80
2022-08-25T16:29:16.666Z,9.73
2022-08-25T16:31:19.551Z,7.30
2022-08-25T16:33:21.895Z,7.50
2022-08-25T16:35:24.068Z,10.15
2022-08-25T16:37:26.508Z,5.95
2022-08-25T16:39:28.982Z,6.22
2022-08-25T16:41:35.751Z,9.00
2022-08-25T16:43:38.535Z,6.22
2022-08-25T16:45:43.560Z,9.77
2022-08-25T16:47:45.720Z,11.32
2022-08-25T16:49:48.418Z,11.07
2022-08-25T16:51:57.357Z,7.88
2022-08-25T16:54:22.120Z,11.90
2022-08-25T16:56:27.869Z,11.98
2022-08-25T16:58:30.101Z,14.30
2022-08-25T17:00:33.439Z,6.65
2022-08-25T17:02:35.614Z,8.32
2022-08-25T17:04:37.635Z,5.07
2022-08-25T17:06:49.350Z,5.95
2022-08-25T17:08:53.560Z,6.15
2022-08-25T17:11:16.941Z,13.30
2022-08-25T17:13:19.026Z,8.35
2022-08-25T17:15:24.073Z,15.50
2022-08-25T17:17:27.038Z,10.95
2022-08-25T17:19:29.530Z,10.18
2022-08-25T17:21:37.947Z,11.25
2022-08-25T17:23:44.626Z,14.20
2022-08-25T17:25:46.622Z,16.20
2022-08-25T17:27:54.471Z,14.00
2022-08-25T17:29:56.406Z,9.90
2022-08-25T17:32:00.613Z,8.73
2022-08-25T17:34:02.668Z,9.15
2022-08-25T17:36:07.292Z,9.40
2022-08-25T17:38:09.705Z,9.63
2022-08-25T17:40:12.594Z,10.23
2022-08-25T17:42:15.921Z,17.10
2022-08-25T17:44:18.028Z,10.05
2022-08-25T17:46:20.150Z,9.75
2022-08-25T17:48:24.914Z,15.07
2022-08-25T17:50:28.319Z,9.02
2022-08-25T17:52:30.812Z,9.00
2022-08-25T17:54:33.758Z,9.75
2022-08-25T17:56:35.734Z,16.23
2022-08-25T17:58:38.167Z,12.45
2022-08-25T18:00:44.084Z,15.18
2022-08-25T18:02:47.169Z,13.25
2022-08-25T18:04:49.421Z,10.38
2022-08-25T18:06:52.531Z,9.85
2022-08-25T18:09:01.885Z,7.70
2022-08-25T18:11:06.612Z,8.55
2022-08-25T18:13:12.418Z,8.00
2022-08-25T18:15:14.635Z,7.70
2022-08-25T18:17:21.860Z,9.75
2022-08-25T18:19:24.977Z,11.90
2022-08-25T18:21:30.537Z,17.52
2022-08-25T18:23:32.889Z,12.80
2022-08-25T18:25:34.883Z,13.80
2022-08-25T18:27:37.999Z,15.32
2022-08-25T18:29:41.595Z,8.77
2022-08-25T18:31:47.357Z,10.15
2022-08-25T18:33:50.861Z,13.13
2022-08-25T18:35:57.417Z,15.07
2022-08-25T18:38:25.816Z,19.95
2022-08-25T18:40:29.542Z,11.57
2022-08-25T18:42:31.634Z,34.05
2022-08-25T18:44:35.152Z,24.20
2022-08-25T18:46:42.375Z,23.65
2022-08-25T18:48:46.234Z,8.60
2022-08-25T18:50:54.513Z,18.30
2022-08-25T18:52:56.787Z,10.40
2022-08-25T18:54:59.731Z,29.52
2022-08-25T18:57:02.956Z,29.63
2022-08-25T18:59:05.112Z,39.55
2022-08-25T19:01:08.729Z,17.25
2022-08-25T19:03:16.247Z,10.55
2022-08-25T19:05:23.260Z,23.80
2022-08-25T19:07:25.741Z,36.67
2022-08-25T19:09:28.242Z,27.58
2022-08-25T19:11:30.636Z,44.47
2022-08-25T19:13:34.601Z,29.02
2022-08-25T19:15:43.663Z,28.33
2022-08-25T19:17:45.932Z,19.75
2022-08-25T19:19:48.075Z,12.77
2022-08-25T19:21:50.861Z,19.83
2022-08-25T19:23:54.132Z,16.05
2022-08-25T19:25:56.349Z,35.63
2022-08-25T19:28:03.249Z,21.95
2022-08-25T19:30:09.570Z,20.45
2022-08-25T19:32:12.755Z,41.08
2022-08-25T19:34:28.370Z,26.55
2022-08-25T19:36:35.878Z,21.45
2022-08-25T19:38:39.106Z,18.23
2022-08-25T19:40:43.115Z,12.98
2022-08-25T19:42:54.670Z,11.25
2022-08-25T19:44:56.956Z,18.40
2022-08-25T19:46:59.629Z,18.33
2022-08-25T19:49:15.470Z,16.58
2022-08-25T19:51:19.293Z,9.75
2022-08-25T19:53:24.299Z,16.13
2022-08-25T19:55:26.511Z,13.48
2022-08-25T19:57:42.412Z,12.07
2022-08-25T19:59:48.400Z,16.33
2022-08-25T20:01:53.081Z,12.63
2022-08-25T20:03:55.569Z,19.35
2022-08-25T20:05:59.397Z,7.53
2022-08-25T20:08:04.012Z,12.25
2022-08-25T20:10:14.122Z,15.63
2022-08-25T20:12:18.035Z,13.68
2022-08-25T20:14:21.643Z,10.02
2022-08-25T20:16:24.907Z,13.07
2022-08-25T20:18:28.606Z,12.63
2022-08-25T20:20:34.655Z,12.90
2022-08-25T20:22:38.954Z,9.80
2022-08-25T20:24:51.036Z,14.10
2022-08-25T20:27:05.898Z,9.65
2022-08-25T20:29:09.800Z,10.25
2022-08-25T20:31:13.479Z,12.18
2022-08-25T20:33:22.841Z,17.42
2022-08-25T20:35:31.312Z,15.02
2022-08-25T20:37:34.510Z,15.40
2022-08-25T20:39:40.654Z,19.35
2022-08-25T20:41:42.655Z,13.85
2022-08-25T20:43:56.766Z,9.93
2022-08-25T20:46:01.269Z,7.57
2022-08-25T20:48:03.815Z,9.40
2022-08-25T20:50:09.858Z,10.10
2022-08-25T20:52:15.486Z,10.48
2022-08-25T20:54:17.881Z,8.68
2022-08-25T20:56:20.646Z,10.98
2022-08-25T20:58:22.878Z,8.75
2022-08-25T21:00:25.631Z,7.50
2022-08-25T21:02:29.665Z,12.18
2022-08-25T21:04:32.067Z,15.13
2022-08-25T21:06:37.831Z,10.23
2022-08-25T21:08:46.842Z,11.77
2022-08-25T21:10:49.065Z,7.35
2022-08-25T21:12:53.379Z,11.75
2022-08-25T21:14:55.637Z,10.70
2022-08-25T21:16:58.943Z,10.57
2022-08-25T21:19:00.998Z,12.40
2022-08-25T21:21:14.776Z,11.98
2022-08-25T21:23:17.675Z,7.95
2022-08-25T21:25:21.952Z,14.48
2022-08-25T21:27:25.908Z,16.10
2022-08-25T21:29:34.110Z,14.32
2022-08-25T21:31:36.554Z,11.88
2022-08-25T21:33:40.026Z,11.27
2022-08-25T21:35:42.941Z,9.30
2022-08-25T21:37:44.953Z,8.07
2022-08-25T21:39:48.103Z,12.43
2022-08-25T21:41:51.124Z,10.98
2022-08-25T21:44:02.293Z,10.35
2022-08-25T21:46:05.088Z,17.25
2022-08-25T21:48:11.654Z,11.13
2022-08-25T21:50:14.616Z,11.85
2022-08-25T21:52:16.723Z,14.13
2022-08-25T21:54:20.678Z,9.25
2022-08-25T21:56:26.277Z,11.50
2022-08-25T21:58:28.453Z,11.15
2022-08-25T22:00:34.051Z,9.30
2022-08-25T22:02:36.067Z,10.05
2022-08-25T22:04:39.755Z,11.00
2022-08-25T22:06:41.834Z,12.68
2022-08-25T22:08:46.381Z,9.35
2022-08-25T22:10:48.635Z,17.23
2022-08-25T22:12:57.672Z,9.65
2022-08-25T22:15:06.137Z,10.98
2022-08-25T22:17:12.279Z,15.55
2022-08-25T22:19:19.670Z,10.77
2022-08-25T22:21:22.801Z,11.80
2022-08-25T22:23:28.146Z,16.42
2022-08-25T22:25:30.436Z,10.13
2022-08-25T22:27:33.618Z,8.13
2022-08-25T22:29:35.911Z,9.60
2022-08-25T22:31:38.004Z,10.13
2022-08-25T22:33:40.477Z,7.13
2022-08-25T22:35:43.622Z,8.75
2022-08-25T22:37:47.204Z,15.52
2022-08-25T22:39:49.269Z,20.13
2022-08-25T22:41:57.653Z,12.18
2022-08-25T22:44:04.926Z,15.90
2022-08-25T22:46:12.777Z,10.90
2022-08-25T22:48:14.974Z,11.35
2022-08-25T22:50:18.113Z,14.15
2022-08-25T22:52:20.852Z,12.85
2022-08-25T22:54:34.241Z,10.95
2022-08-25T22:56:37.880Z,8.30
2022-08-25T22:58:40.658Z,12.00
2022-08-25T23:00:42.773Z,11.70
2022-08-25T23:02:53.475Z,12.88
2022-08-25T23:04:57.981Z,15.30
2022-08-25T23:07:05.502Z,9.02
2022-08-25T23:09:09.142Z,10.05
2022-08-25T23:11:12.699Z,10.35
2022-08-25T23:13:23.034Z,10.10
2022-08-25T23:15:36.489Z,13.00
2022-08-25T23:17:38.955Z,20.00
2022-08-25T23:19:40.899Z,13.15
2022-08-25T23:22:02.117Z,10.77
2022-08-25T23:24:06.227Z,9.90
2022-08-25T23:26:09.791Z,7.97
2022-08-25T23:28:12.809Z,14.52
2022-08-25T23:30:15.066Z,10.40
2022-08-25T23:32:28.070Z,11.45
2022-08-25T23:34:30.519Z,9.50
2022-08-25T23:36:35.929Z,7.72
2022-08-25T23:38:41.867Z,11.65
2022-08-25T23:40:48.896Z,11.15
2022-08-25T23:42:52.908Z,14.50
2022-08-25T23:44:56.196Z,11.48
2022-08-25T23:46:58.272Z,8.40
2022-08-25T23:49:00.440Z,8.38
2022-08-25T23:51:03.844Z,17.73
2022-08-25T23:53:05.861Z,12.20
2022-08-25T23:55:09.106Z,10.32
2022-08-25T23:57:11.771Z,21.02
2022-08-25T23:59:16.053Z,20.75
